Oakwood, Oklahoma
Current Conditions -  °F | °C
As of 11:55 PM on Saturday 22 Nov 2014 (Local Time) from KJWG Reporting Station
Overcast Overcast  
Wind Chill: 12°   Ceiling: 800
Heat Index: 12°   Visibility: 10mi
Dew Point: 12°   Wind: 12mph
Humidity: 100%   Direction: 170°S
Pressure: 29.64"   Gusts: NA
Location:  35.93°N, 98.71°W
Report Text: KJWG 230555Z AUTO 17010KT 10SM OVC008 12/12 A2964 RMK AO2 T01200120 10127 20116 401410065
Loading
Personal Weather Stations






























Interactive Weather Map New forecast layout! Learn more

10-Day Weather Forecast

Advertisements
Track Severe Weather on mobile